X-preSS Montecervino — 9HA3980 — position and weather

sailwx.info

Track history (hours):
 
Tides and Currents Weather Stations Pressure Air Temp Water Temp Dewpoint Dewpoint Depression Visibility Wind Speed Wind Dir Waves Ship Positions

X-preSS Montecervino

Last reported at 2018-Aug-18 19:41 UTC. Time now 2018-Aug-19 23:12 UTC.
Position N 35°58' W 005°36'.

Length 134 m; draft 7.3 m.

Type: Ship. MMSI: 256677000.

Date/timePositionNaut miles runAvg speedWind from/ knotsBaromVisibWave heightAir tempDewpointWater temp
2018-Aug-18 19:41N 35°58' W 005°36'212.5
2018-Aug-18 19:30N 35°58' W 005°34'611.9
2018-Aug-18 19:00N 36°00' W 005°27'510.8
2018-Aug-18 18:30N 36°05' W 005°24'4 9.0
2018-Aug-18 18:00N 36°10' W 005°25'0 0.7
2018-Aug-18 17:27N 36°10' W 005°26'0 0.0
2018-Aug-18 17:00N 36°10' W 005°26'0 0.0
2018-Aug-18 16:05N 36°10' W 005°26'0 0.1
2018-Aug-18 15:59N 36°10' W 005°26'0 0.0
2018-Aug-18 15:29N 36°10' W 005°26'0 0.0
2018-Aug-18 14:59N 36°10' W 005°26'0 0.0
2018-Aug-18 14:26N 36°10' W 005°26'0 0.0
2018-Aug-18 13:58N 36°10' W 005°26'0 0.0
2018-Aug-18 13:28N 36°10' W 005°26'0 0.0
2018-Aug-18 12:58N 36°10' W 005°26'0 0.0
2018-Aug-18 12:28N 36°10' W 005°26'0 0.0
2018-Aug-18 11:55N 36°10' W 005°26'0 0.0
2018-Aug-18 11:30N 36°10' W 005°26'0 0.0
2018-Aug-18 06:16N 36°10' W 005°26'1 2.1
2018-Aug-18 05:52N 36°09' W 005°25'2 4.3
2018-Aug-18 05:30N 36°07' W 005°25'0 0.5
2018-Aug-18 04:57N 36°08' W 005°25'0 0.0
2018-Aug-18 04:26N 36°08' W 005°25'0 0.0
2018-Aug-18 03:59N 36°08' W 005°25'0 0.0
2018-Aug-18 03:29N 36°08' W 005°25'0 0.0
2018-Aug-18 02:59N 36°08' W 005°25'0 0.0
2018-Aug-18 02:29N 36°08' W 005°25'0 0.0
2018-Aug-18 01:55N 36°08' W 005°25'0 0.0
2018-Aug-18 01:28N 36°08' W 005°25'0 0.0
2018-Aug-18 00:58N 36°08' W 005°25'0 0.0
2018-Aug-18 00:25N 36°08' W 005°25'0 0.0
2018-Aug-18 00:00N 36°08' W 005°25'0 0.1
2018-Aug-17 23:30N 36°08' W 005°25'0 0.1
2018-Aug-17 22:59N 36°08' W 005°25'0 0.0
2018-Aug-17 22:29N 36°08' W 005°25'0 0.0
2018-Aug-17 21:58N 36°08' W 005°25'0 0.6
2018-Aug-17 21:30N 36°08' W 005°25'2 3.6
2018-Aug-17 20:59N 36°10' W 005°26'0 0.0
2018-Aug-17 20:26N 36°10' W 005°26'0 0.0
2018-Aug-17 19:58N 36°10' W 005°26'0 0.0
2018-Aug-17 19:07N 36°10' W 005°26'0 0.1
2018-Aug-17 18:52N 36°10' W 005°26'7 3.4
2018-Aug-17 16:44N 36°04' W 005°21'2 7.6
2018-Aug-17 16:30N 36°04' W 005°19'5 9.7
2018-Aug-17 16:00N 36°05' W 005°13'226 7.5
2018-Aug-16 10:00N 37°24' W 000°48'611.4
2018-Aug-16 09:28N 37°28' W 000°43'511.7
2018-Aug-16 09:00N 37°32' W 000°38'612.3
2018-Aug-16 08:30N 37°37' W 000°33'612.5
2018-Aug-16 08:00N 37°42' W 000°28'612.2
2018-Aug-16 07:30N 37°47' W 000°24'612.2
2018-Aug-16 06:58N 37°53' W 000°20'512.0
2018-Aug-16 06:30N 37°57' W 000°15'612.4
2018-Aug-16 06:00N 38°02' W 000°11'1412.2
2018-Aug-16 04:49N 38°14' W 000°01'74 5.8
2018-Aug-15 16:06N 39°27' W 000°19'0 0.0
2018-Aug-15 01:51N 39°27' W 000°19'1 3.5
2018-Aug-15 01:30N 39°26' W 000°18'3 6.5
2018-Aug-15 00:59N 39°26' W 000°14'4 6.4
2018-Aug-15 00:26N 39°29' W 000°11'13013.1
2018-Aug-14 14:33N 40°59' E 001°51'113.3
2018-Aug-14 14:30N 40°60' E 001°52'713.4
2018-Aug-14 14:00N 41°05' E 001°57'713.4
2018-Aug-14 13:30N 41°10' E 002°03'713.2
2018-Aug-14 13:00N 41°15' E 002°09'5 9.2
2018-Aug-14 12:30N 41°20' E 002°10'2 1.7
2018-Aug-14 11:34N 41°21' E 002°10'0 0.0
2018-Aug-14 11:09N 41°21' E 002°10'0 0.0
2018-Aug-14 11:00N 41°21' E 002°10'0 0.0
2018-Aug-14 10:30N 41°21' E 002°10'0 0.0
2018-Aug-14 09:57N 41°21' E 002°10'0 0.0
2018-Aug-14 09:30N 41°21' E 002°10'0 0.0
2018-Aug-14 09:00N 41°21' E 002°10'0 0.0
2018-Aug-14 08:26N 41°21' E 002°10'0 0.0
2018-Aug-14 07:56N 41°21' E 002°10'0 0.0
2018-Aug-14 07:26N 41°21' E 002°10'0 0.0
2018-Aug-14 06:59N 41°21' E 002°10'0 0.0
2018-Aug-14 06:28N 41°21' E 002°10'0 0.0
2018-Aug-14 05:58N 41°21' E 002°10'0 0.0
2018-Aug-14 05:28N 41°21' E 002°10'0 0.0
2018-Aug-14 04:58N 41°21' E 002°10'0 0.0
2018-Aug-14 04:28N 41°21' E 002°10'0 0.7
2018-Aug-14 04:00N 41°21' E 002°10'3 5.6
2018-Aug-14 03:30N 41°18' E 002°10'3 6.5
2018-Aug-14 03:00N 41°15' E 002°09'510.9
2018-Aug-14 02:30N 41°11' E 002°05'15110.4
2018-Aug-13 11:58N 39°27' W 000°19'105 2.2
2018-Aug-11 12:56N 37°42' W 000°23'4 9.7
2018-Aug-11 12:30N 37°39' W 000°26'5 9.7
2018-Aug-11 12:00N 37°35' W 000°30'5 9.6
2018-Aug-11 11:27N 37°31' W 000°34'10 9.9
2018-Aug-11 10:25N 37°24' W 000°44'410.9
2018-Aug-11 10:00N 37°21' W 000°48'22811.2
2018-Aug-10 13:46N 36°02' W 005°14'414.3
2018-Aug-10 13:30N 36°03' W 005°18'510.1
2018-Aug-10 13:00N 36°05' W 005°24'3 0.6
2018-Aug-10 07:51N 36°08' W 005°25'0 0.0
2018-Aug-10 06:14N 36°08' W 005°25'0 0.0
2018-Aug-10 05:59N 36°08' W 005°25'0 0.0
2018-Aug-10 05:20N 36°08' W 005°25'0 0.0
2018-Aug-10 04:53N 36°08' W 005°25'0 0.0
2018-Aug-10 04:28N 36°08' W 005°25'0 0.0
2018-Aug-10 03:59N 36°08' W 005°25'1 1.6
2018-Aug-10 03:29N 36°08' W 005°24'3 6.0
2018-Aug-10 03:00N 36°05' W 005°23'4 7.9
2018-Aug-10 02:30N 36°02' W 005°24'4 8.0
2018-Aug-10 02:00N 35°58' W 005°26'4 8.8
2018-Aug-10 01:30N 35°57' W 005°31'1111.2
2018-Aug-10 00:29N 35°54' W 005°45'  
Track history (hours):
 
Tides and Currents Weather Stations Pressure Air Temp Water Temp Dewpoint Dewpoint Depression Visibility Wind Speed Wind Dir Waves Ship Positions

X-preSS Montecervino

Last reported at 2018-Aug-18 19:41 UTC. Time now 2018-Aug-19 23:12 UTC.
Position N 35°58' W 005°36'.

Length 134 m; draft 7.3 m.

Type: Ship. MMSI: 256677000.

Date/timePositionNaut miles runAvg speedWind from/ knotsBaromVisibWave heightAir tempDewpointWater temp
2018-Aug-18 19:41N 35°58' W 005°36'212.5
2018-Aug-18 19:30N 35°58' W 005°34'611.9
2018-Aug-18 19:00N 36°00' W 005°27'510.8
2018-Aug-18 18:30N 36°05' W 005°24'4 9.0
2018-Aug-18 18:00N 36°10' W 005°25'0 0.7
2018-Aug-18 17:27N 36°10' W 005°26'0 0.0
2018-Aug-18 17:00N 36°10' W 005°26'0 0.0
2018-Aug-18 16:05N 36°10' W 005°26'0 0.1
2018-Aug-18 15:59N 36°10' W 005°26'0 0.0
2018-Aug-18 15:29N 36°10' W 005°26'0 0.0
2018-Aug-18 14:59N 36°10' W 005°26'0 0.0
2018-Aug-18 14:26N 36°10' W 005°26'0 0.0
2018-Aug-18 13:58N 36°10' W 005°26'0 0.0
2018-Aug-18 13:28N 36°10' W 005°26'0 0.0
2018-Aug-18 12:58N 36°10' W 005°26'0 0.0
2018-Aug-18 12:28N 36°10' W 005°26'0 0.0
2018-Aug-18 11:55N 36°10' W 005°26'0 0.0
2018-Aug-18 11:30N 36°10' W 005°26'0 0.0
2018-Aug-18 06:16N 36°10' W 005°26'1 2.1
2018-Aug-18 05:52N 36°09' W 005°25'2 4.3
2018-Aug-18 05:30N 36°07' W 005°25'0 0.5
2018-Aug-18 04:57N 36°08' W 005°25'0 0.0
2018-Aug-18 04:26N 36°08' W 005°25'0 0.0
2018-Aug-18 03:59N 36°08' W 005°25'0 0.0
2018-Aug-18 03:29N 36°08' W 005°25'0 0.0
2018-Aug-18 02:59N 36°08' W 005°25'0 0.0
2018-Aug-18 02:29N 36°08' W 005°25'0 0.0
2018-Aug-18 01:55N 36°08' W 005°25'0 0.0
2018-Aug-18 01:28N 36°08' W 005°25'0 0.0
2018-Aug-18 00:58N 36°08' W 005°25'0 0.0
2018-Aug-18 00:25N 36°08' W 005°25'0 0.0
2018-Aug-18 00:00N 36°08' W 005°25'0 0.1
2018-Aug-17 23:30N 36°08' W 005°25'0 0.1
2018-Aug-17 22:59N 36°08' W 005°25'0 0.0
2018-Aug-17 22:29N 36°08' W 005°25'0 0.0
2018-Aug-17 21:58N 36°08' W 005°25'0 0.6
2018-Aug-17 21:30N 36°08' W 005°25'2 3.6
2018-Aug-17 20:59N 36°10' W 005°26'0 0.0
2018-Aug-17 20:26N 36°10' W 005°26'0 0.0
2018-Aug-17 19:58N 36°10' W 005°26'0 0.0
2018-Aug-17 19:07N 36°10' W 005°26'0 0.1
2018-Aug-17 18:52N 36°10' W 005°26'7 3.4
2018-Aug-17 16:44N 36°04' W 005°21'2 7.6
2018-Aug-17 16:30N 36°04' W 005°19'5 9.7
2018-Aug-17 16:00N 36°05' W 005°13'226 7.5
2018-Aug-16 10:00N 37°24' W 000°48'611.4
2018-Aug-16 09:28N 37°28' W 000°43'511.7
2018-Aug-16 09:00N 37°32' W 000°38'612.3
2018-Aug-16 08:30N 37°37' W 000°33'612.5
2018-Aug-16 08:00N 37°42' W 000°28'612.2
2018-Aug-16 07:30N 37°47' W 000°24'612.2
2018-Aug-16 06:58N 37°53' W 000°20'512.0
2018-Aug-16 06:30N 37°57' W 000°15'612.4
2018-Aug-16 06:00N 38°02' W 000°11'1412.2
2018-Aug-16 04:49N 38°14' W 000°01'74 5.8
2018-Aug-15 16:06N 39°27' W 000°19'0 0.0
2018-Aug-15 01:51N 39°27' W 000°19'1 3.5
2018-Aug-15 01:30N 39°26' W 000°18'3 6.5
2018-Aug-15 00:59N 39°26' W 000°14'4 6.4
2018-Aug-15 00:26N 39°29' W 000°11'13013.1
2018-Aug-14 14:33N 40°59' E 001°51'113.3
2018-Aug-14 14:30N 40°60' E 001°52'713.4
2018-Aug-14 14:00N 41°05' E 001°57'713.4
2018-Aug-14 13:30N 41°10' E 002°03'713.2
2018-Aug-14 13:00N 41°15' E 002°09'5 9.2
2018-Aug-14 12:30N 41°20' E 002°10'2 1.7
2018-Aug-14 11:34N 41°21' E 002°10'0 0.0
2018-Aug-14 11:09N 41°21' E 002°10'0 0.0
2018-Aug-14 11:00N 41°21' E 002°10'0 0.0
2018-Aug-14 10:30N 41°21' E 002°10'0 0.0
2018-Aug-14 09:57N 41°21' E 002°10'0 0.0
2018-Aug-14 09:30N 41°21' E 002°10'0 0.0
2018-Aug-14 09:00N 41°21' E 002°10'0 0.0
2018-Aug-14 08:26N 41°21' E 002°10'0 0.0
2018-Aug-14 07:56N 41°21' E 002°10'0 0.0
2018-Aug-14 07:26N 41°21' E 002°10'0 0.0
2018-Aug-14 06:59N 41°21' E 002°10'0 0.0
2018-Aug-14 06:28N 41°21' E 002°10'0 0.0
2018-Aug-14 05:58N 41°21' E 002°10'0 0.0
2018-Aug-14 05:28N 41°21' E 002°10'0 0.0
2018-Aug-14 04:58N 41°21' E 002°10'0 0.0
2018-Aug-14 04:28N 41°21' E 002°10'0 0.7
2018-Aug-14 04:00N 41°21' E 002°10'3 5.6
2018-Aug-14 03:30N 41°18' E 002°10'3 6.5
2018-Aug-14 03:00N 41°15' E 002°09'510.9
2018-Aug-14 02:30N 41°11' E 002°05'15110.4
2018-Aug-13 11:58N 39°27' W 000°19'105 2.2
2018-Aug-11 12:56N 37°42' W 000°23'4 9.7
2018-Aug-11 12:30N 37°39' W 000°26'5 9.7
2018-Aug-11 12:00N 37°35' W 000°30'5 9.6
2018-Aug-11 11:27N 37°31' W 000°34'10 9.9
2018-Aug-11 10:25N 37°24' W 000°44'410.9
2018-Aug-11 10:00N 37°21' W 000°48'22811.2
2018-Aug-10 13:46N 36°02' W 005°14'414.3
2018-Aug-10 13:30N 36°03' W 005°18'510.1
2018-Aug-10 13:00N 36°05' W 005°24'3 0.6
2018-Aug-10 07:51N 36°08' W 005°25'0 0.0
2018-Aug-10 06:14N 36°08' W 005°25'0 0.0
2018-Aug-10 05:59N 36°08' W 005°25'0 0.0
2018-Aug-10 05:20N 36°08' W 005°25'0 0.0
2018-Aug-10 04:53N 36°08' W 005°25'0 0.0
2018-Aug-10 04:28N 36°08' W 005°25'0 0.0
2018-Aug-10 03:59N 36°08' W 005°25'1 1.6
2018-Aug-10 03:29N 36°08' W 005°24'3 6.0
2018-Aug-10 03:00N 36°05' W 005°23'4 7.9
2018-Aug-10 02:30N 36°02' W 005°24'4 8.0
2018-Aug-10 02:00N 35°58' W 005°26'4 8.8
2018-Aug-10 01:30N 35°57' W 005°31'1111.2
2018-Aug-10 00:29N 35°54' W 005°45'  

Dump ship's entire track history